sensor_id;sensor_type;location;lat;lon;timestamp;pressure;altitude;pressure_sealevel;temperature;humidity
36798;BME280;22748;8.426;99.512;2022-09-09T00:01:59;100793.78;;;28.71;69.62
36798;BME280;22748;8.426;99.512;2022-09-09T00:04:32;100793.78;;;28.71;69.79
36798;BME280;22748;8.426;99.512;2022-09-09T00:07:18;100811.78;;;28.70;69.93
36798;BME280;22748;8.426;99.512;2022-09-09T00:10:00;100809.09;;;28.70;69.82
36798;BME280;22748;8.426;99.512;2022-09-09T00:12:39;100806.59;;;28.69;69.82
36798;BME280;22748;8.426;99.512;2022-09-09T00:15:14;100808.47;;;28.68;69.71
36798;BME280;22748;8.426;99.512;2022-09-09T00:17:51;100818.97;;;28.70;70.27
36798;BME280;22748;8.426;99.512;2022-09-09T00:20:32;100821.91;;;28.68;70.13
36798;BME280;22748;8.426;99.512;2022-09-09T00:23:14;100821.47;;;28.65;69.82
36798;BME280;22748;8.426;99.512;2022-09-09T00:26:04;100824.16;;;28.65;70.14
36798;BME280;22748;8.426;99.512;2022-09-09T00:28:39;100831.81;;;28.68;70.37
36798;BME280;22748;8.426;99.512;2022-09-09T00:31:17;100835.34;;;28.68;69.94
36798;BME280;22748;8.426;99.512;2022-09-09T00:33:50;100828.91;;;28.69;70.32
36798;BME280;22748;8.426;99.512;2022-09-09T00:36:23;100834.50;;;28.68;69.85
36798;BME280;22748;8.426;99.512;2022-09-09T00:38:58;100840.91;;;28.67;70.09
36798;BME280;22748;8.426;99.512;2022-09-09T00:41:42;100845.44;;;28.66;69.78
36798;BME280;22748;8.426;99.512;2022-09-09T00:44:28;100857.41;;;28.50;70.31
36798;BME280;22748;8.426;99.512;2022-09-09T00:47:15;100851.19;;;28.57;70.02
36798;BME280;22748;8.426;99.512;2022-09-09T00:49:57;100851.00;;;28.58;70.56
36798;BME280;22748;8.426;99.512;2022-09-09T00:52:38;100859.50;;;28.62;70.31
36798;BME280;22748;8.426;99.512;2022-09-09T00:55:19;100860.75;;;28.66;70.39
36798;BME280;22748;8.426;99.512;2022-09-09T00:57:59;100871.09;;;28.69;70.35
36798;BME280;22748;8.426;99.512;2022-09-09T01:00:31;100869.03;;;28.71;70.53
36798;BME280;22748;8.426;99.512;2022-09-09T01:03:25;100874.41;;;28.71;70.74
36798;BME280;22748;8.426;99.512;2022-09-09T01:06:10;100884.75;;;28.74;70.65
36798;BME280;22748;8.426;99.512;2022-09-09T01:09:11;100886.41;;;28.75;70.70
36798;BME280;22748;8.426;99.512;2022-09-09T01:11:52;100890.56;;;28.78;70.60
36798;BME280;22748;8.426;99.512;2022-09-09T01:14:32;100901.94;;;28.80;70.77
36798;BME280;22748;8.426;99.512;2022-09-09T01:17:13;100895.09;;;28.70;70.93
36798;BME280;22748;8.426;99.512;2022-09-09T01:20:03;100900.44;;;28.64;71.29
36798;BME280;22748;8.426;99.512;2022-09-09T01:22:36;100904.38;;;28.68;71.42
36798;BME280;22748;8.426;99.512;2022-09-09T01:25:22;100908.28;;;28.72;71.51
36798;BME280;22748;8.426;99.512;2022-09-09T01:28:10;100916.59;;;28.77;71.19
36798;BME280;22748;8.426;99.512;2022-09-09T01:30:44;100916.34;;;28.72;72.08
36798;BME280;22748;8.426;99.512;2022-09-09T01:33:15;100921.09;;;28.63;72.64
36798;BME280;22748;8.426;99.512;2022-09-09T01:35:52;100920.50;;;28.68;72.71
36798;BME280;22748;8.426;99.512;2022-09-09T01:38:23;100917.81;;;28.68;72.49
36798;BME280;22748;8.426;99.512;2022-09-09T01:40:56;100930.53;;;28.52;73.55
36798;BME280;22748;8.426;99.512;2022-09-09T01:43:27;100934.50;;;28.57;73.00
36798;BME280;22748;8.426;99.512;2022-09-09T01:46:01;100941.38;;;28.66;73.13
36798;BME280;22748;8.426;99.512;2022-09-09T01:48:31;100944.50;;;28.76;72.80
36798;BME280;22748;8.426;99.512;2022-09-09T01:51:00;100949.28;;;28.87;72.26
36798;BME280;22748;8.426;99.512;2022-09-09T01:53:32;100950.53;;;28.85;72.62
36798;BME280;22748;8.426;99.512;2022-09-09T01:56:14;100952.59;;;28.89;72.45
36798;BME280;22748;8.426;99.512;2022-09-09T01:59:03;100955.06;;;28.78;72.38
36798;BME280;22748;8.426;99.512;2022-09-09T02:01:46;100956.31;;;28.82;72.94
36798;BME280;22748;8.426;99.512;2022-09-09T02:04:33;100957.59;;;28.92;72.46
36798;BME280;22748;8.426;99.512;2022-09-09T02:07:10;100956.38;;;29.02;72.65
36798;BME280;22748;8.426;99.512;2022-09-09T02:09:49;100959.69;;;29.04;72.52
36798;BME280;22748;8.426;99.512;2022-09-09T02:12:22;100963.81;;;29.00;72.32
36798;BME280;22748;8.426;99.512;2022-09-09T02:14:59;100960.88;;;28.81;73.28
36798;BME280;22748;8.426;99.512;2022-09-09T02:17:34;100959.44;;;28.85;73.12
36798;BME280;22748;8.426;99.512;2022-09-09T02:20:07;100964.44;;;28.95;73.13
36798;BME280;22748;8.426;99.512;2022-09-09T02:22:40;100957.19;;;28.96;72.30
36798;BME280;22748;8.426;99.512;2022-09-09T02:25:19;100960.97;;;29.08;71.18
36798;BME280;22748;8.426;99.512;2022-09-09T02:27:50;100961.81;;;29.15;70.90
36798;BME280;22748;8.426;99.512;2022-09-09T02:30:23;100963.50;;;29.23;70.98
36798;BME280;22748;8.426;99.512;2022-09-09T02:32:57;100966.19;;;29.16;70.61
36798;BME280;22748;8.426;99.512;2022-09-09T02:35:31;100966.81;;;29.18;70.83
36798;BME280;22748;8.426;99.512;2022-09-09T02:38:09;100959.78;;;29.30;70.50
36798;BME280;22748;8.426;99.512;2022-09-09T02:40:40;100973.03;;;29.19;69.44
36798;BME280;22748;8.426;99.512;2022-09-09T02:43:14;100964.50;;;29.15;70.24
36798;BME280;22748;8.426;99.512;2022-09-09T02:45:56;100959.78;;;29.30;69.58
36798;BME280;22748;8.426;99.512;2022-09-09T02:48:33;100954.66;;;29.42;69.22
36798;BME280;22748;8.426;99.512;2022-09-09T02:51:09;100947.00;;;29.52;68.26
36798;BME280;22748;8.426;99.512;2022-09-09T02:53:56;100944.91;;;29.61;68.15
36798;BME280;22748;8.426;99.512;2022-09-09T02:56:33;100953.84;;;29.68;68.43
36798;BME280;22748;8.426;99.512;2022-09-09T02:59:09;100957.41;;;29.76;67.97
36798;BME280;22748;8.426;99.512;2022-09-09T03:01:40;100954.69;;;29.76;66.76
36798;BME280;22748;8.426;99.512;2022-09-09T03:04:13;100952.81;;;29.76;66.86
36798;BME280;22748;8.426;99.512;2022-09-09T03:06:45;100954.69;;;29.76;67.50
36798;BME280;22748;8.426;99.512;2022-09-09T03:09:16;100958.03;;;29.78;67.86
36798;BME280;22748;8.426;99.512;2022-09-09T03:11:47;100952.81;;;29.83;67.72
36798;BME280;22748;8.426;99.512;2022-09-09T03:14:18;100957.81;;;29.86;67.65
36798;BME280;22748;8.426;99.512;2022-09-09T03:16:53;100950.38;;;29.88;67.52
36798;BME280;22748;8.426;99.512;2022-09-09T03:19:23;100951.56;;;29.92;67.79
36798;BME280;22748;8.426;99.512;2022-09-09T03:21:53;100949.50;;;29.94;67.50
36798;BME280;22748;8.426;99.512;2022-09-09T03:24:22;100953.88;;;29.95;67.72
36798;BME280;22748;8.426;99.512;2022-09-09T03:26:52;100949.09;;;29.97;67.49
36798;BME280;22748;8.426;99.512;2022-09-09T03:29:22;100957.81;;;29.99;67.38
36798;BME280;22748;8.426;99.512;2022-09-09T03:31:54;100959.44;;;30.00;66.72
36798;BME280;22748;8.426;99.512;2022-09-09T03:34:23;100962.75;;;30.02;66.87
36798;BME280;22748;8.426;99.512;2022-09-09T03:36:55;100961.13;;;30.01;66.60
36798;BME280;22748;8.426;99.512;2022-09-09T03:39:27;100961.75;;;30.03;66.43
36798;BME280;22748;8.426;99.512;2022-09-09T03:42:01;100956.56;;;30.02;65.96
36798;BME280;22748;8.426;99.512;2022-09-09T03:44:40;100957.38;;;30.02;65.87
36798;BME280;22748;8.426;99.512;2022-09-09T03:47:17;100962.34;;;30.05;66.02
36798;BME280;22748;8.426;99.512;2022-09-09T05:35:29;100769.94;;;31.28;59.56
36798;BME280;22748;8.426;99.512;2022-09-09T05:38:00;100768.91;;;31.29;59.02
36798;BME280;22748;8.426;99.512;2022-09-09T05:40:30;100748.97;;;31.30;59.36
36798;BME280;22748;8.426;99.512;2022-09-09T05:43:01;100746.66;;;31.34;59.10
36798;BME280;22748;8.426;99.512;2022-09-09T05:45:31;100736.00;;;31.39;59.24
36798;BME280;22748;8.426;99.512;2022-09-09T05:48:01;100730.63;;;31.39;59.94
36798;BME280;22748;8.426;99.512;2022-09-09T05:50:33;100725.28;;;31.32;59.26
36798;BME280;22748;8.426;99.512;2022-09-09T05:53:05;100715.66;;;31.18;59.24
36798;BME280;22748;8.426;99.512;2022-09-09T05:55:35;100709.56;;;31.29;59.82
36798;BME280;22748;8.426;99.512;2022-09-09T05:58:04;100696.94;;;31.42;58.91
36798;BME280;22748;8.426;99.512;2022-09-09T06:00:34;100695.06;;;31.49;59.08
36798;BME280;22748;8.426;99.512;2022-09-09T06:03:04;100689.31;;;31.57;58.66
36798;BME280;22748;8.426;99.512;2022-09-09T06:05:35;100683.63;;;31.65;58.40
36798;BME280;22748;8.426;99.512;2022-09-09T06:08:05;100682.72;;;31.71;58.06
36798;BME280;22748;8.426;99.512;2022-09-09T06:10:40;100669.59;;;31.75;58.36
36798;BME280;22748;8.426;99.512;2022-09-09T06:13:10;100665.47;;;31.72;57.74
36798;BME280;22748;8.426;99.512;2022-09-09T06:15:49;100654.41;;;31.62;57.92
36798;BME280;22748;8.426;99.512;2022-09-09T06:18:19;100651.00;;;31.67;56.44
36798;BME280;22748;8.426;99.512;2022-09-09T06:20:58;100637.88;;;31.70;57.11
36798;BME280;22748;8.426;99.512;2022-09-09T06:23:29;100633.91;;;31.73;58.37
36798;BME280;22748;8.426;99.512;2022-09-09T06:26:03;100635.16;;;31.70;58.46
36798;BME280;22748;8.426;99.512;2022-09-09T06:28:35;100626.03;;;31.71;58.82
36798;BME280;22748;8.426;99.512;2022-09-09T06:31:06;100622.25;;;31.72;58.58
36798;BME280;22748;8.426;99.512;2022-09-09T06:33:38;100618.97;;;31.70;57.93
36798;BME280;22748;8.426;99.512;2022-09-09T06:36:12;100618.38;;;31.68;58.01
36798;BME280;22748;8.426;99.512;2022-09-09T06:38:42;100616.84;;;31.72;57.90
36798;BME280;22748;8.426;99.512;2022-09-09T06:41:13;100602.75;;;31.70;57.95
36798;BME280;22748;8.426;99.512;2022-09-09T06:43:45;100598.34;;;31.76;57.59
36798;BME280;22748;8.426;99.512;2022-09-09T06:46:17;100598.25;;;31.83;57.76
36798;BME280;22748;8.426;99.512;2022-09-09T06:48:51;100598.03;;;31.84;57.78
36798;BME280;22748;8.426;99.512;2022-09-09T06:51:26;100596.25;;;31.90;57.67
36798;BME280;22748;8.426;99.512;2022-09-09T06:53:58;100586.03;;;31.92;56.80
36798;BME280;22748;8.426;99.512;2022-09-09T06:56:30;100567.66;;;32.01;56.58
36798;BME280;22748;8.426;99.512;2022-09-09T06:59:02;100568.72;;;32.00;56.75
36798;BME280;22748;8.426;99.512;2022-09-09T07:01:36;100567.81;;;32.06;56.56
36798;BME280;22748;8.426;99.512;2022-09-09T07:04:08;100569.34;;;32.13;57.19
36798;BME280;22748;8.426;99.512;2022-09-09T07:06:45;100560.88;;;32.22;56.82
36798;BME280;22748;8.426;99.512;2022-09-09T07:09:15;100543.28;;;32.31;56.13
36798;BME280;22748;8.426;99.512;2022-09-09T07:11:46;100551.97;;;32.33;55.93
36798;BME280;22748;8.426;99.512;2022-09-09T07:14:16;100538.00;;;32.36;55.53
36798;BME280;22748;8.426;99.512;2022-09-09T07:16:48;100530.34;;;32.33;56.17
36798;BME280;22748;8.426;99.512;2022-09-09T07:19:19;100524.56;;;32.29;56.80
36798;BME280;22748;8.426;99.512;2022-09-09T07:21:52;100524.25;;;32.26;56.77
36798;BME280;22748;8.426;99.512;2022-09-09T07:24:23;100513.56;;;32.19;56.74
36798;BME280;22748;8.426;99.512;2022-09-09T07:26:51;100500.63;;;32.21;56.81
36798;BME280;22748;8.426;99.512;2022-09-09T07:29:22;100496.16;;;32.27;56.96
36798;BME280;22748;8.426;99.512;2022-09-09T07:31:54;100495.09;;;32.28;57.24
36798;BME280;22748;8.426;99.512;2022-09-09T07:34:23;100497.09;;;32.32;56.34
36798;BME280;22748;8.426;99.512;2022-09-09T07:36:56;100486.66;;;32.36;56.18
36798;BME280;22748;8.426;99.512;2022-09-09T07:39:26;100483.69;;;32.37;56.41
36798;BME280;22748;8.426;99.512;2022-09-09T07:41:56;100476.41;;;32.38;56.49
36798;BME280;22748;8.426;99.512;2022-09-09T07:44:25;100469.94;;;32.39;55.74
36798;BME280;22748;8.426;99.512;2022-09-09T07:46:57;100471.00;;;32.38;55.81
36798;BME280;22748;8.426;99.512;2022-09-09T07:49:27;100466.19;;;32.40;55.70
36798;BME280;22748;8.426;99.512;2022-09-09T07:52:00;100463.25;;;32.42;55.76
36798;BME280;22748;8.426;99.512;2022-09-09T07:54:30;100466.03;;;32.47;55.88
36798;BME280;22748;8.426;99.512;2022-09-09T07:57:01;100465.81;;;32.48;56.42
36798;BME280;22748;8.426;99.512;2022-09-09T07:59:32;100457.25;;;32.51;55.98
36798;BME280;22748;8.426;99.512;2022-09-09T08:02:04;100458.69;;;32.54;55.30
36798;BME280;22748;8.426;99.512;2022-09-09T08:04:36;100465.50;;;32.56;55.31
36798;BME280;22748;8.426;99.512;2022-09-09T08:07:08;100465.50;;;32.56;55.59
36798;BME280;22748;8.426;99.512;2022-09-09T08:09:40;100450.44;;;32.61;55.63
36798;BME280;22748;8.426;99.512;2022-09-09T08:12:11;100443.38;;;32.59;56.48
36798;BME280;22748;8.426;99.512;2022-09-09T08:14:41;100442.31;;;32.61;56.36
36798;BME280;22748;8.426;99.512;2022-09-09T08:17:11;100437.16;;;32.59;56.46
36798;BME280;22748;8.426;99.512;2022-09-09T08:19:40;100437.38;;;32.57;56.88
36798;BME280;22748;8.426;99.512;2022-09-09T08:22:13;100436.56;;;32.45;56.25
36798;BME280;22748;8.426;99.512;2022-09-09T08:24:41;100425.19;;;32.43;56.70
36798;BME280;22748;8.426;99.512;2022-09-09T08:27:12;100419.88;;;32.48;56.14
36798;BME280;22748;8.426;99.512;2022-09-09T08:29:41;100426.66;;;32.51;55.91
36798;BME280;22748;8.426;99.512;2022-09-09T08:32:43;100431.88;;;32.52;57.05
36798;BME280;22748;8.426;99.512;2022-09-09T08:35:26;100454.78;;;32.50;57.82
36798;BME280;22748;8.426;99.512;2022-09-09T08:38:01;100454.19;;;32.48;57.76
36798;BME280;22748;8.426;99.512;2022-09-09T08:40:34;100477.13;;;32.45;58.58
36798;BME280;22748;8.426;99.512;2022-09-09T08:43:05;100471.25;;;32.36;59.24
36798;BME280;22748;8.426;99.512;2022-09-09T08:45:37;100467.28;;;32.04;59.75
36798;BME280;22748;8.426;99.512;2022-09-09T08:48:36;100461.59;;;31.93;60.76
36798;BME280;22748;8.426;99.512;2022-09-09T08:51:12;100458.09;;;31.51;61.27
36798;BME280;22748;8.426;99.512;2022-09-09T08:53:50;100456.63;;;31.36;62.11
36798;BME280;22748;8.426;99.512;2022-09-09T08:56:24;100466.56;;;31.43;61.77
36798;BME280;22748;8.426;99.512;2022-09-09T08:58:59;100470.25;;;31.42;61.67
36798;BME280;22748;8.426;99.512;2022-09-09T09:02:03;100478.22;;;31.36;62.38
36798;BME280;22748;8.426;99.512;2022-09-09T09:04:49;100502.28;;;30.71;64.19
36798;BME280;22748;8.426;99.512;2022-09-09T09:07:35;100499.22;;;30.86;64.25
36798;BME280;22748;8.426;99.512;2022-09-09T09:10:21;100479.03;;;31.07;63.80
36798;BME280;22748;8.426;99.512;2022-09-09T09:12:59;100461.03;;;31.19;63.32
36798;BME280;22748;8.426;99.512;2022-09-09T09:15:33;100459.63;;;31.16;63.25
36798;BME280;22748;8.426;99.512;2022-09-09T09:18:07;100468.25;;;31.07;63.46
36798;BME280;22748;8.426;99.512;2022-09-09T09:20:56;100458.75;;;31.04;63.53
36798;BME280;22748;8.426;99.512;2022-09-09T09:23:35;100461.88;;;30.83;64.67
36798;BME280;22748;8.426;99.512;2022-09-09T09:26:12;100473.88;;;30.50;66.05
36798;BME280;22748;8.426;99.512;2022-09-09T09:28:43;100479.63;;;30.72;65.43
36798;BME280;22748;8.426;99.512;2022-09-09T09:31:13;100496.72;;;30.84;65.31
36798;BME280;22748;8.426;99.512;2022-09-09T09:33:47;100505.72;;;30.96;64.81
36798;BME280;22748;8.426;99.512;2022-09-09T09:36:17;100516.66;;;31.02;64.53
36798;BME280;22748;8.426;99.512;2022-09-09T09:38:56;100530.22;;;30.95;64.40
36798;BME280;22748;8.426;99.512;2022-09-09T09:41:34;100540.63;;;30.91;65.27
36798;BME280;22748;8.426;99.512;2022-09-09T09:44:18;100541.09;;;30.88;64.66
36798;BME280;22748;8.426;99.512;2022-09-09T09:46:52;100566.28;;;30.75;64.73
36798;BME280;22748;8.426;99.512;2022-09-09T09:49:21;100576.88;;;30.77;65.17
36798;BME280;22748;8.426;99.512;2022-09-09T09:51:52;100606.72;;;30.75;64.64
36798;BME280;22748;8.426;99.512;2022-09-09T09:54:28;100634.63;;;30.63;64.53
36798;BME280;22748;8.426;99.512;2022-09-09T09:57:10;100677.56;;;30.32;61.80
36798;BME280;22748;8.426;99.512;2022-09-09T09:59:39;100661.09;;;30.09;61.30
36798;BME280;22748;8.426;99.512;2022-09-09T10:02:16;100645.75;;;30.16;60.58
36798;BME280;22748;8.426;99.512;2022-09-09T10:04:47;100604.03;;;30.25;60.69
36798;BME280;22748;8.426;99.512;2022-09-09T10:07:20;100611.72;;;30.22;60.14
36798;BME280;22748;8.426;99.512;2022-09-09T10:09:54;100517.06;;;29.93;59.76
36798;BME280;22748;8.426;99.512;2022-09-09T10:12:35;100474.50;;;29.77;57.70
36798;BME280;22748;8.426;99.512;2022-09-09T10:15:22;100485.47;;;29.82;59.19
36798;BME280;22748;8.426;99.512;2022-09-09T10:18:02;100501.50;;;29.95;59.84
36798;BME280;22748;8.426;99.512;2022-09-09T10:20:42;100513.31;;;29.94;59.17
36798;BME280;22748;8.426;99.512;2022-09-09T10:23:26;100512.97;;;29.84;59.04
36798;BME280;22748;8.426;99.512;2022-09-09T10:26:08;100526.25;;;29.79;58.53
36798;BME280;22748;8.426;99.512;2022-09-09T10:28:58;100529.00;;;29.65;59.00
36798;BME280;22748;8.426;99.512;2022-09-09T10:31:41;100531.75;;;29.59;59.36
36798;BME280;22748;8.426;99.512;2022-09-09T10:34:23;100557.38;;;29.61;60.02
36798;BME280;22748;8.426;99.512;2022-09-09T10:37:06;100587.59;;;29.70;60.21
36798;BME280;22748;8.426;99.512;2022-09-09T10:39:41;100600.81;;;29.78;59.72
36798;BME280;22748;8.426;99.512;2022-09-09T10:42:14;100595.38;;;29.85;60.00
36798;BME280;22748;8.426;99.512;2022-09-09T10:45:06;100588.78;;;29.81;59.33
36798;BME280;22748;8.426;99.512;2022-09-09T10:48:02;100590.25;;;29.77;59.92
36798;BME280;22748;8.426;99.512;2022-09-09T10:50:52;100585.47;;;29.79;59.99
36798;BME280;22748;8.426;99.512;2022-09-09T10:53:35;100589.63;;;29.81;59.69
36798;BME280;22748;8.426;99.512;2022-09-09T10:56:10;100587.75;;;29.82;60.20
36798;BME280;22748;8.426;99.512;2022-09-09T10:58:47;100591.91;;;29.78;59.78
36798;BME280;22748;8.426;99.512;2022-09-09T11:01:22;100592.16;;;29.69;59.13
36798;BME280;22748;8.426;99.512;2022-09-09T11:04:00;100614.91;;;29.67;60.01
36798;BME280;22748;8.426;99.512;2022-09-09T11:06:37;100616.56;;;29.68;60.37
36798;BME280;22748;8.426;99.512;2022-09-09T11:09:14;100620.75;;;29.70;60.30
36798;BME280;22748;8.426;99.512;2022-09-09T11:11:49;100632.94;;;29.73;60.40
36798;BME280;22748;8.426;99.512;2022-09-09T11:14:26;100643.06;;;29.78;60.20
36798;BME280;22748;8.426;99.512;2022-09-09T11:17:02;100659.84;;;29.73;59.79
36798;BME280;22748;8.426;99.512;2022-09-09T11:19:35;100665.25;;;29.66;60.17
36798;BME280;22748;8.426;99.512;2022-09-09T11:22:18;100660.13;;;29.51;59.81
36798;BME280;22748;8.426;99.512;2022-09-09T11:24:54;100656.41;;;29.46;60.48
36798;BME280;22748;8.426;99.512;2022-09-09T11:27:29;100667.59;;;29.43;60.81
36798;BME280;22748;8.426;99.512;2022-09-09T11:30:16;100659.72;;;29.41;61.19
36798;BME280;22748;8.426;99.512;2022-09-09T11:33:04;100657.66;;;29.43;60.93
36798;BME280;22748;8.426;99.512;2022-09-09T11:35:53;100647.72;;;29.44;60.84
36798;BME280;22748;8.426;99.512;2022-09-09T11:38:36;100636.75;;;29.45;60.88
36798;BME280;22748;8.426;99.512;2022-09-09T11:41:09;100634.47;;;29.49;60.88
36798;BME280;22748;8.426;99.512;2022-09-09T11:43:41;100643.34;;;29.49;61.02
36798;BME280;22748;8.426;99.512;2022-09-09T11:46:22;100652.28;;;29.43;60.97
36798;BME280;22748;8.426;99.512;2022-09-09T11:49:52;100670.31;;;29.29;60.76
36798;BME280;22748;8.426;99.512;2022-09-09T11:52:40;100676.72;;;29.28;60.98
36798;BME280;22748;8.426;99.512;2022-09-09T11:55:27;100669.72;;;29.27;61.21
36798;BME280;22748;8.426;99.512;2022-09-09T11:58:00;100676.53;;;29.30;61.66
36798;BME280;22748;8.426;99.512;2022-09-09T12:00:35;100681.28;;;29.35;61.62
36798;BME280;22748;8.426;99.512;2022-09-09T12:03:34;100692.44;;;29.38;61.91
36798;BME280;22748;8.426;99.512;2022-09-09T12:06:24;100702.38;;;29.44;61.50
36798;BME280;22748;8.426;99.512;2022-09-09T12:09:06;100704.41;;;29.49;61.89
36798;BME280;22748;8.426;99.512;2022-09-09T12:11:38;100713.09;;;29.51;61.80
36798;BME280;22748;8.426;99.512;2022-09-09T12:14:21;100709.81;;;29.49;61.93
36798;BME280;22748;8.426;99.512;2022-09-09T12:16:50;100707.72;;;29.51;62.62
36798;BME280;22748;8.426;99.512;2022-09-09T12:19:23;100699.66;;;29.51;62.15
36798;BME280;22748;8.426;99.512;2022-09-09T12:22:00;100699.25;;;29.47;62.43
36798;BME280;22748;8.426;99.512;2022-09-09T12:24:43;100709.81;;;29.49;62.51
36798;BME280;22748;8.426;99.512;2022-09-09T12:27:25;100723.91;;;29.44;62.00
36798;BME280;22748;8.426;99.512;2022-09-09T12:30:03;100741.25;;;29.42;62.50
36798;BME280;22748;8.426;99.512;2022-09-09T12:32:34;100748.31;;;29.43;62.69
36798;BME280;22748;8.426;99.512;2022-09-09T12:35:12;100759.28;;;29.41;62.35
36798;BME280;22748;8.426;99.512;2022-09-09T12:37:52;100759.47;;;29.40;62.86
36798;BME280;22748;8.426;99.512;2022-09-09T12:40:26;100764.84;;;29.40;62.65
36798;BME280;22748;8.426;99.512;2022-09-09T12:42:59;100770.66;;;29.37;62.57
36798;BME280;22748;8.426;99.512;2022-09-09T12:45:31;100768.59;;;29.39;62.61
36798;BME280;22748;8.426;99.512;2022-09-09T12:48:07;100777.72;;;29.38;62.64
36798;BME280;22748;8.426;99.512;2022-09-09T12:50:44;100768.59;;;29.39;62.79
36798;BME280;22748;8.426;99.512;2022-09-09T12:53:24;100777.72;;;29.38;62.93
36798;BME280;22748;8.426;99.512;2022-09-09T12:55:59;100784.94;;;29.37;62.76
36798;BME280;22748;8.426;99.512;2022-09-09T12:58:30;100792.19;;;29.37;62.71
36798;BME280;22748;8.426;99.512;2022-09-09T13:01:03;100788.47;;;29.38;63.01
36798;BME280;22748;8.426;99.512;2022-09-09T13:03:33;100792.19;;;29.37;62.97
36798;BME280;22748;8.426;99.512;2022-09-09T13:06:20;100793.44;;;29.34;62.61
36798;BME280;22748;8.426;99.512;2022-09-09T13:08:55;100802.31;;;29.35;62.67
36798;BME280;22748;8.426;99.512;2022-09-09T13:11:35;100800.44;;;29.35;63.25
36798;BME280;22748;8.426;99.512;2022-09-09T13:14:17;100802.31;;;29.35;62.94
36798;BME280;22748;8.426;99.512;2022-09-09T13:16:56;100805.00;;;29.35;63.34
36798;BME280;22748;8.426;99.512;2022-09-09T13:19:26;100816.59;;;29.35;62.84
36798;BME280;22748;8.426;99.512;2022-09-09T13:22:00;100815.16;;;29.32;63.00
36798;BME280;22748;8.426;99.512;2022-09-09T13:24:45;100819.28;;;29.28;62.89
36798;BME280;22748;8.426;99.512;2022-09-09T13:27:29;100824.47;;;29.30;63.01
36798;BME280;22748;8.426;99.512;2022-09-09T13:30:19;100824.28;;;29.31;63.36
36798;BME280;22748;8.426;99.512;2022-09-09T13:33:04;100822.41;;;29.32;63.50
36798;BME280;22748;8.426;99.512;2022-09-09T13:35:44;100824.91;;;29.33;63.67
36798;BME280;22748;8.426;99.512;2022-09-09T13:38:16;100830.91;;;29.36;63.77
36798;BME280;22748;8.426;99.512;2022-09-09T13:40:59;100831.09;;;29.34;63.93
36798;BME280;22748;8.426;99.512;2022-09-09T13:43:34;100836.47;;;29.34;63.57
36798;BME280;22748;8.426;99.512;2022-09-09T13:46:25;100833.97;;;29.32;63.64
36798;BME280;22748;8.426;99.512;2022-09-09T13:48:57;100838.75;;;29.30;63.46
36798;BME280;22748;8.426;99.512;2022-09-09T13:51:33;100848.47;;;29.31;63.77
36798;BME280;22748;8.426;99.512;2022-09-09T13:54:15;100850.56;;;29.29;63.87
36798;BME280;22748;8.426;99.512;2022-09-09T13:57:03;100865.88;;;29.29;64.14
36798;BME280;22748;8.426;99.512;2022-09-09T13:59:37;100867.94;;;29.27;63.73
36798;BME280;22748;8.426;99.512;2022-09-09T14:02:08;100872.47;;;29.26;63.75
36798;BME280;22748;8.426;99.512;2022-09-09T14:04:38;100870.81;;;29.25;63.93
36798;BME280;22748;8.426;99.512;2022-09-09T14:07:12;100871.22;;;29.22;63.71
36798;BME280;22748;8.426;99.512;2022-09-09T14:09:44;100880.34;;;29.21;63.91
36798;BME280;22748;8.426;99.512;2022-09-09T14:12:19;100886.75;;;29.20;63.91
36798;BME280;22748;8.426;99.512;2022-09-09T14:14:50;100887.34;;;29.22;64.04
36798;BME280;22748;8.426;99.512;2022-09-09T14:17:21;100887.97;;;29.24;64.28
36798;BME280;22748;8.426;99.512;2022-09-09T14:19:52;100881.59;;;29.25;64.02
36798;BME280;22748;8.426;99.512;2022-09-09T14:22:23;100895.66;;;29.27;64.05
36798;BME280;22748;8.426;99.512;2022-09-09T14:24:53;100898.16;;;29.29;64.30
36798;BME280;22748;8.426;99.512;2022-09-09T14:27:26;100903.53;;;29.29;63.99
36798;BME280;22748;8.426;99.512;2022-09-09T14:29:57;100899.78;;;29.30;64.33
36798;BME280;22748;8.426;99.512;2022-09-09T14:32:28;100909.50;;;29.31;64.07
36798;BME280;22748;8.426;99.512;2022-09-09T14:35:01;100916.13;;;29.28;63.95
36798;BME280;22748;8.426;99.512;2022-09-09T14:37:34;100916.97;;;29.29;63.90
36798;BME280;22748;8.426;99.512;2022-09-09T14:40:04;100930.44;;;29.29;63.98
36798;BME280;22748;8.426;99.512;2022-09-09T14:42:36;100929.56;;;29.28;64.27
36798;BME280;22748;8.426;99.512;2022-09-09T14:45:07;100943.03;;;29.28;64.47
36798;BME280;22748;8.426;99.512;2022-09-09T14:47:37;100940.34;;;29.28;64.51
36798;BME280;22748;8.426;99.512;2022-09-09T14:50:09;100950.06;;;29.29;64.42
36798;BME280;22748;8.426;99.512;2022-09-09T14:52:42;100952.78;;;29.29;64.22
36798;BME280;22748;8.426;99.512;2022-09-09T14:55:12;100959.78;;;29.30;64.47
36798;BME280;22748;8.426;99.512;2022-09-09T14:57:43;100958.16;;;29.29;64.15
36798;BME280;22748;8.426;99.512;2022-09-09T15:00:15;100949.03;;;29.30;64.26
36798;BME280;22748;8.426;99.512;2022-09-09T15:02:45;100948.00;;;29.31;64.24
36798;BME280;22748;8.426;99.512;2022-09-09T15:05:15;100949.84;;;29.31;64.60
36798;BME280;22748;8.426;99.512;2022-09-09T15:07:51;100942.84;;;29.30;64.48
36798;BME280;22748;8.426;99.512;2022-09-09T15:10:23;100953.41;;;29.31;64.21
36798;BME280;22748;8.426;99.512;2022-09-09T15:12:55;100952.78;;;29.29;64.19
36798;BME280;22748;8.426;99.512;2022-09-09T15:15:26;100942.00;;;29.29;64.62
36798;BME280;22748;8.426;99.512;2022-09-09T15:17:58;100952.78;;;29.29;64.82
36798;BME280;22748;8.426;99.512;2022-09-09T15:20:30;100951.94;;;29.29;64.60
36798;BME280;22748;8.426;99.512;2022-09-09T15:23:00;100955.66;;;29.28;64.90